sensor_id;sensor_type;location;lat;lon;timestamp;temperature;humidity
33741;DHT22;20065;48.380;10.892;2023-12-20T00:01:48;7.40;99.90
33741;DHT22;20065;48.380;10.892;2023-12-20T00:04:35;7.50;99.90
33741;DHT22;20065;48.380;10.892;2023-12-20T00:07:21;7.40;99.90
33741;DHT22;20065;48.380;10.892;2023-12-20T00:10:08;7.50;99.90
33741;DHT22;20065;48.380;10.892;2023-12-20T00:12:54;7.50;99.90
33741;DHT22;20065;48.380;10.892;2023-12-20T00:15:40;7.50;99.90
33741;DHT22;20065;48.380;10.892;2023-12-20T00:18:26;7.70;99.90
33741;DHT22;20065;48.380;10.892;2023-12-20T00:21:12;7.50;99.90
33741;DHT22;20065;48.380;10.892;2023-12-20T00:23:59;7.50;99.90
33741;DHT22;20065;48.380;10.892;2023-12-20T00:26:45;7.50;99.90
33741;DHT22;20065;48.380;10.892;2023-12-20T00:29:31;7.60;99.90
33741;DHT22;20065;48.380;10.892;2023-12-20T00:32:17;7.60;99.90
33741;DHT22;20065;48.380;10.892;2023-12-20T00:35:04;7.70;99.90
33741;DHT22;20065;48.380;10.892;2023-12-20T00:37:50;7.70;99.90
33741;DHT22;20065;48.380;10.892;2023-12-20T00:40:36;7.60;99.90
33741;DHT22;20065;48.380;10.892;2023-12-20T00:43:22;7.50;99.90
33741;DHT22;20065;48.380;10.892;2023-12-20T00:46:09;7.50;99.90
33741;DHT22;20065;48.380;10.892;2023-12-20T00:48:55;7.60;99.90
33741;DHT22;20065;48.380;10.892;2023-12-20T00:51:42;7.60;99.90
33741;DHT22;20065;48.380;10.892;2023-12-20T00:54:28;7.60;99.90
33741;DHT22;20065;48.380;10.892;2023-12-20T00:57:16;7.70;99.90
33741;DHT22;20065;48.380;10.892;2023-12-20T01:00:03;7.50;99.90
33741;DHT22;20065;48.380;10.892;2023-12-20T01:02:49;7.50;99.90
33741;DHT22;20065;48.380;10.892;2023-12-20T01:05:37;7.60;99.90
33741;DHT22;20065;48.380;10.892;2023-12-20T01:08:23;7.50;99.90
33741;DHT22;20065;48.380;10.892;2023-12-20T01:11:09;7.50;99.90
33741;DHT22;20065;48.380;10.892;2023-12-20T01:13:55;7.60;99.90
33741;DHT22;20065;48.380;10.892;2023-12-20T01:16:41;7.50;99.90
33741;DHT22;20065;48.380;10.892;2023-12-20T01:19:28;7.40;99.90
33741;DHT22;20065;48.380;10.892;2023-12-20T01:22:15;7.50;99.90
33741;DHT22;20065;48.380;10.892;2023-12-20T01:25:01;7.40;99.90
33741;DHT22;20065;48.380;10.892;2023-12-20T01:27:48;7.60;99.90
33741;DHT22;20065;48.380;10.892;2023-12-20T01:30:34;7.60;99.90
33741;DHT22;20065;48.380;10.892;2023-12-20T01:33:20;7.40;99.90
33741;DHT22;20065;48.380;10.892;2023-12-20T01:36:07;7.40;99.90
33741;DHT22;20065;48.380;10.892;2023-12-20T01:38:53;7.40;99.90
33741;DHT22;20065;48.380;10.892;2023-12-20T01:41:40;7.40;99.90
33741;DHT22;20065;48.380;10.892;2023-12-20T01:44:26;7.40;99.90
33741;DHT22;20065;48.380;10.892;2023-12-20T01:47:13;7.40;99.90
33741;DHT22;20065;48.380;10.892;2023-12-20T01:49:59;7.40;99.90
33741;DHT22;20065;48.380;10.892;2023-12-20T01:52:45;7.40;99.90
33741;DHT22;20065;48.380;10.892;2023-12-20T01:55:33;7.30;99.90
33741;DHT22;20065;48.380;10.892;2023-12-20T01:58:21;7.40;99.90
33741;DHT22;20065;48.380;10.892;2023-12-20T02:01:07;7.40;99.90
33741;DHT22;20065;48.380;10.892;2023-12-20T02:03:54;7.40;99.90
33741;DHT22;20065;48.380;10.892;2023-12-20T02:06:40;7.40;99.90
33741;DHT22;20065;48.380;10.892;2023-12-20T02:09:28;7.40;99.90
33741;DHT22;20065;48.380;10.892;2023-12-20T02:12:15;7.30;99.90
33741;DHT22;20065;48.380;10.892;2023-12-20T02:15:01;7.40;99.90
33741;DHT22;20065;48.380;10.892;2023-12-20T02:17:48;7.30;99.90
33741;DHT22;20065;48.380;10.892;2023-12-20T02:20:35;7.30;99.90
33741;DHT22;20065;48.380;10.892;2023-12-20T02:23:21;7.30;99.90
33741;DHT22;20065;48.380;10.892;2023-12-20T02:26:07;7.20;99.90
33741;DHT22;20065;48.380;10.892;2023-12-20T02:28:54;7.20;99.90
33741;DHT22;20065;48.380;10.892;2023-12-20T02:31:40;7.20;99.90
33741;DHT22;20065;48.380;10.892;2023-12-20T02:34:26;7.10;99.90
33741;DHT22;20065;48.380;10.892;2023-12-20T02:37:12;7.10;99.90
33741;DHT22;20065;48.380;10.892;2023-12-20T02:39:59;7.10;99.90
33741;DHT22;20065;48.380;10.892;2023-12-20T02:42:45;7.00;99.90
33741;DHT22;20065;48.380;10.892;2023-12-20T02:45:31;6.90;99.90
33741;DHT22;20065;48.380;10.892;2023-12-20T02:48:20;6.80;99.90
33741;DHT22;20065;48.380;10.892;2023-12-20T02:51:06;6.80;99.90
33741;DHT22;20065;48.380;10.892;2023-12-20T02:53:53;6.80;99.90
33741;DHT22;20065;48.380;10.892;2023-12-20T02:56:39;6.70;99.90
33741;DHT22;20065;48.380;10.892;2023-12-20T02:59:25;6.70;99.90
33741;DHT22;20065;48.380;10.892;2023-12-20T03:02:11;6.60;99.90
33741;DHT22;20065;48.380;10.892;2023-12-20T03:04:58;6.60;99.90
33741;DHT22;20065;48.380;10.892;2023-12-20T03:07:46;6.50;99.90
33741;DHT22;20065;48.380;10.892;2023-12-20T03:10:32;6.60;99.90
33741;DHT22;20065;48.380;10.892;2023-12-20T03:13:19;6.50;99.90
33741;DHT22;20065;48.380;10.892;2023-12-20T03:16:12;6.40;99.90
33741;DHT22;20065;48.380;10.892;2023-12-20T03:18:58;6.30;99.90
33741;DHT22;20065;48.380;10.892;2023-12-20T03:21:45;6.20;99.90
33741;DHT22;20065;48.380;10.892;2023-12-20T03:24:31;6.20;99.90
33741;DHT22;20065;48.380;10.892;2023-12-20T03:27:17;6.10;99.90
33741;DHT22;20065;48.380;10.892;2023-12-20T03:30:04;6.20;99.90
33741;DHT22;20065;48.380;10.892;2023-12-20T03:32:50;6.20;99.90
33741;DHT22;20065;48.380;10.892;2023-12-20T03:35:36;6.20;99.90
33741;DHT22;20065;48.380;10.892;2023-12-20T03:38:23;6.10;99.90
33741;DHT22;20065;48.380;10.892;2023-12-20T03:41:12;6.10;99.90
33741;DHT22;20065;48.380;10.892;2023-12-20T03:43:58;6.10;99.90
33741;DHT22;20065;48.380;10.892;2023-12-20T03:46:44;6.80;99.90
33741;DHT22;20065;48.380;10.892;2023-12-20T03:49:31;5.90;99.90
33741;DHT22;20065;48.380;10.892;2023-12-20T03:52:17;5.90;99.90
33741;DHT22;20065;48.380;10.892;2023-12-20T03:55:04;5.80;99.90
33741;DHT22;20065;48.380;10.892;2023-12-20T03:57:50;5.90;99.90
33741;DHT22;20065;48.380;10.892;2023-12-20T04:00:37;6.10;99.90
33741;DHT22;20065;48.380;10.892;2023-12-20T04:03:23;6.00;99.90
33741;DHT22;20065;48.380;10.892;2023-12-20T04:06:09;6.20;99.90
33741;DHT22;20065;48.380;10.892;2023-12-20T04:08:58;5.90;99.90
33741;DHT22;20065;48.380;10.892;2023-12-20T04:11:44;6.00;99.90
33741;DHT22;20065;48.380;10.892;2023-12-20T04:14:30;6.10;99.90
33741;DHT22;20065;48.380;10.892;2023-12-20T04:17:18;6.00;99.90
33741;DHT22;20065;48.380;10.892;2023-12-20T04:20:04;6.00;99.90
33741;DHT22;20065;48.380;10.892;2023-12-20T04:22:51;5.90;99.90
33741;DHT22;20065;48.380;10.892;2023-12-20T04:25:37;5.90;99.90
33741;DHT22;20065;48.380;10.892;2023-12-20T04:28:23;5.90;99.90
33741;DHT22;20065;48.380;10.892;2023-12-20T04:31:09;5.90;99.90
33741;DHT22;20065;48.380;10.892;2023-12-20T04:33:56;5.90;99.90
33741;DHT22;20065;48.380;10.892;2023-12-20T04:36:43;6.00;99.90
33741;DHT22;20065;48.380;10.892;2023-12-20T04:39:31;5.90;99.90
33741;DHT22;20065;48.380;10.892;2023-12-20T04:42:17;5.80;99.90
33741;DHT22;20065;48.380;10.892;2023-12-20T04:45:03;5.90;99.90
33741;DHT22;20065;48.380;10.892;2023-12-20T04:47:50;5.90;99.90
33741;DHT22;20065;48.380;10.892;2023-12-20T04:50:36;5.80;99.90
33741;DHT22;20065;48.380;10.892;2023-12-20T04:53:22;6.20;99.90
33741;DHT22;20065;48.380;10.892;2023-12-20T04:56:09;5.90;99.90
33741;DHT22;20065;48.380;10.892;2023-12-20T04:58:55;6.10;99.90
33741;DHT22;20065;48.380;10.892;2023-12-20T05:01:41;5.90;99.90
33741;DHT22;20065;48.380;10.892;2023-12-20T05:04:27;6.10;99.90
33741;DHT22;20065;48.380;10.892;2023-12-20T05:07:13;5.80;99.90
33741;DHT22;20065;48.380;10.892;2023-12-20T05:09:59;5.80;99.90
33741;DHT22;20065;48.380;10.892;2023-12-20T05:12:49;5.80;99.90
33741;DHT22;20065;48.380;10.892;2023-12-20T05:15:35;5.80;99.90
33741;DHT22;20065;48.380;10.892;2023-12-20T05:18:21;6.00;99.90
33741;DHT22;20065;48.380;10.892;2023-12-20T05:21:09;5.80;99.90
33741;DHT22;20065;48.380;10.892;2023-12-20T05:23:55;5.70;99.90
33741;DHT22;20065;48.380;10.892;2023-12-20T05:26:41;5.70;99.90
33741;DHT22;20065;48.380;10.892;2023-12-20T05:29:27;5.80;99.90
33741;DHT22;20065;48.380;10.892;2023-12-20T05:32:13;5.80;99.90
33741;DHT22;20065;48.380;10.892;2023-12-20T05:35:00;5.80;99.90
33741;DHT22;20065;48.380;10.892;2023-12-20T05:37:46;5.80;99.90
33741;DHT22;20065;48.380;10.892;2023-12-20T05:40:32;5.80;99.90
33741;DHT22;20065;48.380;10.892;2023-12-20T05:43:19;5.80;99.90
33741;DHT22;20065;48.380;10.892;2023-12-20T05:46:05;5.70;99.90
33741;DHT22;20065;48.380;10.892;2023-12-20T05:48:52;5.60;99.90
33741;DHT22;20065;48.380;10.892;2023-12-20T05:51:38;5.70;99.90
33741;DHT22;20065;48.380;10.892;2023-12-20T05:54:24;5.80;99.90
33741;DHT22;20065;48.380;10.892;2023-12-20T05:57:10;5.70;99.90
33741;DHT22;20065;48.380;10.892;2023-12-20T05:59:56;5.70;99.90
33741;DHT22;20065;48.380;10.892;2023-12-20T06:02:43;5.60;99.90
33741;DHT22;20065;48.380;10.892;2023-12-20T06:05:29;5.60;99.90
33741;DHT22;20065;48.380;10.892;2023-12-20T06:08:15;5.60;99.90
33741;DHT22;20065;48.380;10.892;2023-12-20T06:11:01;5.60;99.90
33741;DHT22;20065;48.380;10.892;2023-12-20T06:13:48;5.60;99.90
33741;DHT22;20065;48.380;10.892;2023-12-20T06:16:37;5.70;99.90
33741;DHT22;20065;48.380;10.892;2023-12-20T06:19:23;5.60;99.90
33741;DHT22;20065;48.380;10.892;2023-12-20T06:22:09;5.50;99.90
33741;DHT22;20065;48.380;10.892;2023-12-20T06:24:55;5.40;99.90
33741;DHT22;20065;48.380;10.892;2023-12-20T06:27:42;5.50;99.90
33741;DHT22;20065;48.380;10.892;2023-12-20T06:30:28;5.50;99.90
33741;DHT22;20065;48.380;10.892;2023-12-20T06:33:14;5.50;99.90
33741;DHT22;20065;48.380;10.892;2023-12-20T06:36:00;5.50;99.90
33741;DHT22;20065;48.380;10.892;2023-12-20T06:38:47;5.50;99.90
33741;DHT22;20065;48.380;10.892;2023-12-20T06:41:33;5.60;99.90
33741;DHT22;20065;48.380;10.892;2023-12-20T06:44:19;5.50;99.90
33741;DHT22;20065;48.380;10.892;2023-12-20T06:47:05;5.50;99.90
33741;DHT22;20065;48.380;10.892;2023-12-20T06:49:51;5.40;99.90
33741;DHT22;20065;48.380;10.892;2023-12-20T06:52:38;5.30;99.90
33741;DHT22;20065;48.380;10.892;2023-12-20T06:55:24;5.40;99.90
33741;DHT22;20065;48.380;10.892;2023-12-20T06:58:10;5.30;99.90
33741;DHT22;20065;48.380;10.892;2023-12-20T07:00:56;5.40;99.90
33741;DHT22;20065;48.380;10.892;2023-12-20T07:03:42;5.40;99.90
33741;DHT22;20065;48.380;10.892;2023-12-20T07:06:29;5.40;99.90
33741;DHT22;20065;48.380;10.892;2023-12-20T07:09:15;5.10;99.90
33741;DHT22;20065;48.380;10.892;2023-12-20T07:12:02;5.60;99.90
33741;DHT22;20065;48.380;10.892;2023-12-20T07:14:50;5.30;99.90
33741;DHT22;20065;48.380;10.892;2023-12-20T07:17:45;5.30;99.90
33741;DHT22;20065;48.380;10.892;2023-12-20T07:20:34;5.20;99.90
33741;DHT22;20065;48.380;10.892;2023-12-20T07:23:22;5.30;99.90
33741;DHT22;20065;48.380;10.892;2023-12-20T07:26:08;5.30;99.90
33741;DHT22;20065;48.380;10.892;2023-12-20T07:29:04;5.30;99.90
33741;DHT22;20065;48.380;10.892;2023-12-20T07:31:50;5.30;99.90
33741;DHT22;20065;48.380;10.892;2023-12-20T07:34:38;5.20;99.90
33741;DHT22;20065;48.380;10.892;2023-12-20T07:37:28;5.20;99.90
33741;DHT22;20065;48.380;10.892;2023-12-20T07:40:20;5.20;99.90
33741;DHT22;20065;48.380;10.892;2023-12-20T07:43:06;5.10;99.90
33741;DHT22;20065;48.380;10.892;2023-12-20T07:45:52;5.10;99.90
33741;DHT22;20065;48.380;10.892;2023-12-20T07:48:38;5.30;99.90
33741;DHT22;20065;48.380;10.892;2023-12-20T07:51:24;5.20;99.90
33741;DHT22;20065;48.380;10.892;2023-12-20T07:54:11;5.30;99.90
33741;DHT22;20065;48.380;10.892;2023-12-20T07:56:57;5.30;99.90
33741;DHT22;20065;48.380;10.892;2023-12-20T07:59:46;5.30;99.90
33741;DHT22;20065;48.380;10.892;2023-12-20T08:02:32;5.30;99.90
33741;DHT22;20065;48.380;10.892;2023-12-20T08:05:23;5.30;99.90
33741;DHT22;20065;48.380;10.892;2023-12-20T08:08:14;5.30;99.90
33741;DHT22;20065;48.380;10.892;2023-12-20T08:11:05;5.40;99.90
33741;DHT22;20065;48.380;10.892;2023-12-20T08:13:51;5.60;99.90
33741;DHT22;20065;48.380;10.892;2023-12-20T08:16:40;5.50;99.90
33741;DHT22;20065;48.380;10.892;2023-12-20T08:19:27;5.50;99.90
33741;DHT22;20065;48.380;10.892;2023-12-20T08:22:13;5.50;99.90
33741;DHT22;20065;48.380;10.892;2023-12-20T08:24:59;5.50;99.90
33741;DHT22;20065;48.380;10.892;2023-12-20T08:27:46;5.50;99.90
33741;DHT22;20065;48.380;10.892;2023-12-20T08:30:32;5.40;99.90
33741;DHT22;20065;48.380;10.892;2023-12-20T08:33:18;5.50;99.90
33741;DHT22;20065;48.380;10.892;2023-12-20T08:36:05;5.50;99.90
33741;DHT22;20065;48.380;10.892;2023-12-20T08:38:52;5.80;99.90
33741;DHT22;20065;48.380;10.892;2023-12-20T08:41:38;5.60;99.90
33741;DHT22;20065;48.380;10.892;2023-12-20T08:44:24;5.60;99.90
33741;DHT22;20065;48.380;10.892;2023-12-20T08:47:10;5.60;99.90
33741;DHT22;20065;48.380;10.892;2023-12-20T08:49:59;5.60;99.90
33741;DHT22;20065;48.380;10.892;2023-12-20T08:52:46;5.70;99.90
33741;DHT22;20065;48.380;10.892;2023-12-20T08:55:33;5.60;99.90
33741;DHT22;20065;48.380;10.892;2023-12-20T08:58:19;5.80;99.90
33741;DHT22;20065;48.380;10.892;2023-12-20T09:01:06;5.20;99.90
33741;DHT22;20065;48.380;10.892;2023-12-20T09:03:54;4.70;99.90
33741;DHT22;20065;48.380;10.892;2023-12-20T09:06:40;5.90;99.90
33741;DHT22;20065;48.380;10.892;2023-12-20T09:09:26;5.70;99.90
33741;DHT22;20065;48.380;10.892;2023-12-20T09:12:15;5.70;99.90
33741;DHT22;20065;48.380;10.892;2023-12-20T09:15:01;5.50;99.90
33741;DHT22;20065;48.380;10.892;2023-12-20T09:17:48;5.70;99.90
33741;DHT22;20065;48.380;10.892;2023-12-20T09:20:35;5.70;99.90
33741;DHT22;20065;48.380;10.892;2023-12-20T09:23:22;5.80;99.90
33741;DHT22;20065;48.380;10.892;2023-12-20T09:26:08;5.20;99.90
33741;DHT22;20065;48.380;10.892;2023-12-20T09:29:05;5.80;99.90
33741;DHT22;20065;48.380;10.892;2023-12-20T09:32:01;5.80;99.90
33741;DHT22;20065;48.380;10.892;2023-12-20T09:34:56;5.90;99.90
33741;DHT22;20065;48.380;10.892;2023-12-20T09:37:43;6.10;99.90
33741;DHT22;20065;48.380;10.892;2023-12-20T09:40:41;6.20;99.90
33741;DHT22;20065;48.380;10.892;2023-12-20T09:43:30;6.10;99.90
33741;DHT22;20065;48.380;10.892;2023-12-20T09:46:21;5.90;99.90
33741;DHT22;20065;48.380;10.892;2023-12-20T09:49:19;6.00;99.90
33741;DHT22;20065;48.380;10.892;2023-12-20T09:55:36;6.30;99.90
33741;DHT22;20065;48.380;10.892;2023-12-20T09:58:25;6.40;99.90
33741;DHT22;20065;48.380;10.892;2023-12-20T10:01:42;6.10;99.90
33741;DHT22;20065;48.380;10.892;2023-12-20T10:05:09;6.20;99.90
33741;DHT22;20065;48.380;10.892;2023-12-20T10:08:06;6.40;99.90
33741;DHT22;20065;48.380;10.892;2023-12-20T10:10:55;6.20;99.90
33741;DHT22;20065;48.380;10.892;2023-12-20T10:14:33;6.70;99.90
33741;DHT22;20065;48.380;10.892;2023-12-20T10:17:05;5.90;99.90
33741;DHT22;20065;48.380;10.892;2023-12-20T10:19:52;6.20;99.90
33741;DHT22;20065;48.380;10.892;2023-12-20T10:23:11;6.10;99.90
33741;DHT22;20065;48.380;10.892;2023-12-20T10:26:40;6.10;99.90
33741;DHT22;20065;48.380;10.892;2023-12-20T10:29:45;6.60;99.90
33741;DHT22;20065;48.380;10.892;2023-12-20T10:32:32;6.60;99.90
33741;DHT22;20065;48.380;10.892;2023-12-20T10:35:19;6.30;99.90
33741;DHT22;20065;48.380;10.892;2023-12-20T10:38:12;6.40;99.90
33741;DHT22;20065;48.380;10.892;2023-12-20T10:41:28;6.40;99.90
33741;DHT22;20065;48.380;10.892;2023-12-20T10:52:39;7.60;99.90
33741;DHT22;20065;48.380;10.892;2023-12-20T10:55:46;8.20;99.90
33741;DHT22;20065;48.380;10.892;2023-12-20T10:58:48;7.10;99.90
33741;DHT22;20065;48.380;10.892;2023-12-20T11:02:13;6.90;99.90
33741;DHT22;20065;48.380;10.892;2023-12-20T11:05:33;7.20;99.90
33741;DHT22;20065;48.380;10.892;2023-12-20T11:08:57;7.10;99.90
33741;DHT22;20065;48.380;10.892;2023-12-20T11:14:49;6.80;99.90
33741;DHT22;20065;48.380;10.892;2023-12-20T11:17:39;5.70;99.90
33741;DHT22;20065;48.380;10.892;2023-12-20T11:20:41;6.70;99.90
33741;DHT22;20065;48.380;10.892;2023-12-20T11:23:30;6.90;99.90
33741;DHT22;20065;48.380;10.892;2023-12-20T11:26:26;7.10;99.90
33741;DHT22;20065;48.380;10.892;2023-12-20T11:29:33;6.70;99.90
33741;DHT22;20065;48.380;10.892;2023-12-20T11:56:05;6.80;99.90
33741;DHT22;20065;48.380;10.892;2023-12-20T11:58:56;6.80;99.90
33741;DHT22;20065;48.380;10.892;2023-12-20T12:01:48;6.70;99.90
33741;DHT22;20065;48.380;10.892;2023-12-20T12:04:41;6.80;99.90
33741;DHT22;20065;48.380;10.892;2023-12-20T12:07:48;6.60;99.90
33741;DHT22;20065;48.380;10.892;2023-12-20T12:10:34;6.70;99.90
33741;DHT22;20065;48.380;10.892;2023-12-20T12:13:21;6.70;99.90
33741;DHT22;20065;48.380;10.892;2023-12-20T12:16:08;6.70;99.90
33741;DHT22;20065;48.380;10.892;2023-12-20T12:18:58;6.80;99.90
33741;DHT22;20065;48.380;10.892;2023-12-20T12:30:38;7.60;99.90
33741;DHT22;20065;48.380;10.892;2023-12-20T12:33:25;6.80;99.90
33741;DHT22;20065;48.380;10.892;2023-12-20T12:36:12;6.80;99.90
33741;DHT22;20065;48.380;10.892;2023-12-20T12:39:05;6.80;99.90
33741;DHT22;20065;48.380;10.892;2023-12-20T12:41:51;6.10;99.90
33741;DHT22;20065;48.380;10.892;2023-12-20T12:44:38;6.80;99.90
33741;DHT22;20065;48.380;10.892;2023-12-20T12:47:30;6.80;99.90
33741;DHT22;20065;48.380;10.892;2023-12-20T12:50:47;6.80;99.90
33741;DHT22;20065;48.380;10.892;2023-12-20T12:58:08;7.90;99.90
33741;DHT22;20065;48.380;10.892;2023-12-20T13:01:07;6.90;99.90
33741;DHT22;20065;48.380;10.892;2023-12-20T13:03:54;7.00;99.90
33741;DHT22;20065;48.380;10.892;2023-12-20T13:06:40;6.80;99.90
33741;DHT22;20065;48.380;10.892;2023-12-20T13:09:28;6.90;99.90
33741;DHT22;20065;48.380;10.892;2023-12-20T13:12:21;6.80;99.90
33741;DHT22;20065;48.380;10.892;2023-12-20T13:15:11;6.90;99.90
33741;DHT22;20065;48.380;10.892;2023-12-20T13:18:12;7.30;99.90
33741;DHT22;20065;48.380;10.892;2023-12-20T13:21:01;5.70;99.90
33741;DHT22;20065;48.380;10.892;2023-12-20T13:23:48;7.00;99.90
33741;DHT22;20065;48.380;10.892;2023-12-20T13:26:34;6.90;99.90
33741;DHT22;20065;48.380;10.892;2023-12-20T13:29:24;7.10;99.90
33741;DHT22;20065;48.380;10.892;2023-12-20T13:32:31;6.80;99.90
33741;DHT22;20065;48.380;10.892;2023-12-20T13:35:23;6.80;99.90
33741;DHT22;20065;48.380;10.892;2023-12-20T13:38:09;7.30;99.90
33741;DHT22;20065;48.380;10.892;2023-12-20T13:40:56;6.70;99.90
33741;DHT22;20065;48.380;10.892;2023-12-20T13:43:51;6.90;99.90
33741;DHT22;20065;48.380;10.892;2023-12-20T13:46:48;6.70;99.90
33741;DHT22;20065;48.380;10.892;2023-12-20T13:49:38;6.30;99.90
33741;DHT22;20065;48.380;10.892;2023-12-20T13:52:27;6.80;99.90
33741;DHT22;20065;48.380;10.892;2023-12-20T13:55:25;6.80;99.90
33741;DHT22;20065;48.380;10.892;2023-12-20T14:01:48;6.70;99.90
33741;DHT22;20065;48.380;10.892;2023-12-20T14:05:09;7.10;99.90
33741;DHT22;20065;48.380;10.892;2023-12-20T14:08:09;5.80;99.90
33741;DHT22;20065;48.380;10.892;2023-12-20T14:11:01;6.90;99.90
33741;DHT22;20065;48.380;10.892;2023-12-20T14:13:48;6.60;99.90
33741;DHT22;20065;48.380;10.892;2023-12-20T14:16:35;6.90;99.90
33741;DHT22;20065;48.380;10.892;2023-12-20T14:19:37;6.80;99.90
33741;DHT22;20065;48.380;10.892;2023-12-20T14:22:33;6.60;99.90
33741;DHT22;20065;48.380;10.892;2023-12-20T14:25:19;7.00;99.90
33741;DHT22;20065;48.380;10.892;2023-12-20T14:28:08;6.70;99.90
33741;DHT22;20065;48.380;10.892;2023-12-20T14:30:56;6.90;99.90
33741;DHT22;20065;48.380;10.892;2023-12-20T14:33:55;6.70;99.90
33741;DHT22;20065;48.380;10.892;2023-12-20T14:36:51;6.80;99.90
33741;DHT22;20065;48.380;10.892;2023-12-20T14:39:40;7.00;99.90
33741;DHT22;20065;48.380;10.892;2023-12-20T14:42:30;7.10;99.90
33741;DHT22;20065;48.380;10.892;2023-12-20T14:45:21;7.20;99.90
33741;DHT22;20065;48.380;10.892;2023-12-20T14:48:13;6.70;99.90
33741;DHT22;20065;48.380;10.892;2023-12-20T14:51:00;6.50;99.90
33741;DHT22;20065;48.380;10.892;2023-12-20T14:53:46;6.80;99.90
33741;DHT22;20065;48.380;10.892;2023-12-20T14:56:33;6.60;99.90
33741;DHT22;20065;48.380;10.892;2023-12-20T14:59:46;6.50;99.90
33741;DHT22;20065;48.380;10.892;2023-12-20T15:02:32;6.50;99.90
33741;DHT22;20065;48.380;10.892;2023-12-20T15:05:19;6.80;99.90
33741;DHT22;20065;48.380;10.892;2023-12-20T15:08:12;6.60;99.90
33741;DHT22;20065;48.380;10.892;2023-12-20T15:10:58;6.40;99.90
33741;DHT22;20065;48.380;10.892;2023-12-20T15:13:45;6.60;99.90
33741;DHT22;20065;48.380;10.892;2023-12-20T15:16:44;6.30;99.90
33741;DHT22;20065;48.380;10.892;2023-12-20T15:19:32;6.40;99.90
33741;DHT22;20065;48.380;10.892;2023-12-20T15:22:18;6.30;99.90
33741;DHT22;20065;48.380;10.892;2023-12-20T15:25:04;6.30;99.90
33741;DHT22;20065;48.380;10.892;2023-12-20T15:28:10;6.30;99.90
33741;DHT22;20065;48.380;10.892;2023-12-20T15:30:59;6.40;99.90
33741;DHT22;20065;48.380;10.892;2023-12-20T15:33:49;6.80;99.90
33741;DHT22;20065;48.380;10.892;2023-12-20T15:36:48;6.70;99.90
33741;DHT22;20065;48.380;10.892;2023-12-20T15:39:57;6.40;99.90
33741;DHT22;20065;48.380;10.892;2023-12-20T15:46:36;6.40;99.90
33741;DHT22;20065;48.380;10.892;2023-12-20T15:49:25;6.10;99.90
33741;DHT22;20065;48.380;10.892;2023-12-20T15:52:12;6.00;99.90
33741;DHT22;20065;48.380;10.892;2023-12-20T16:31:43;5.90;99.90
33741;DHT22;20065;48.380;10.892;2023-12-20T16:35:56;5.10;99.90
33741;DHT22;20065;48.380;10.892;2023-12-20T16:38:43;5.40;99.90
33741;DHT22;20065;48.380;10.892;2023-12-20T16:41:29;5.40;99.90
33741;DHT22;20065;48.380;10.892;2023-12-20T16:44:26;5.50;99.90
33741;DHT22;20065;48.380;10.892;2023-12-20T16:47:53;5.30;99.90
33741;DHT22;20065;48.380;10.892;2023-12-20T16:51:32;4.70;99.90
33741;DHT22;20065;48.380;10.892;2023-12-20T16:54:32;6.30;99.90
33741;DHT22;20065;48.380;10.892;2023-12-20T16:57:31;5.90;99.90
33741;DHT22;20065;48.380;10.892;2023-12-20T17:00:17;5.40;99.90
33741;DHT22;20065;48.380;10.892;2023-12-20T17:03:04;5.50;99.90
33741;DHT22;20065;48.380;10.892;2023-12-20T17:05:50;5.50;99.90
33741;DHT22;20065;48.380;10.892;2023-12-20T17:08:36;5.60;99.90
33741;DHT22;20065;48.380;10.892;2023-12-20T17:11:25;5.50;99.90
33741;DHT22;20065;48.380;10.892;2023-12-20T17:14:12;5.50;99.90
33741;DHT22;20065;48.380;10.892;2023-12-20T17:17:01;5.50;99.90
33741;DHT22;20065;48.380;10.892;2023-12-20T17:19:52;5.50;99.90
33741;DHT22;20065;48.380;10.892;2023-12-20T17:22:39;5.40;99.90
33741;DHT22;20065;48.380;10.892;2023-12-20T17:25:25;5.40;99.90
33741;DHT22;20065;48.380;10.892;2023-12-20T17:28:12;5.40;99.90
33741;DHT22;20065;48.380;10.892;2023-12-20T17:31:04;4.60;99.90
33741;DHT22;20065;48.380;10.892;2023-12-20T17:33:50;5.60;99.90
33741;DHT22;20065;48.380;10.892;2023-12-20T17:36:46;5.40;99.90
33741;DHT22;20065;48.380;10.892;2023-12-20T17:39:32;5.40;99.90
33741;DHT22;20065;48.380;10.892;2023-12-20T17:42:23;5.50;99.90
33741;DHT22;20065;48.380;10.892;2023-12-20T17:45:09;5.40;99.90
33741;DHT22;20065;48.380;10.892;2023-12-20T17:48:06;5.40;99.90
33741;DHT22;20065;48.380;10.892;2023-12-20T17:50:55;5.40;99.90
33741;DHT22;20065;48.380;10.892;2023-12-20T17:53:41;5.20;99.90
33741;DHT22;20065;48.380;10.892;2023-12-20T17:56:28;5.20;99.90
33741;DHT22;20065;48.380;10.892;2023-12-20T17:59:22;5.30;99.90
33741;DHT22;20065;48.380;10.892;2023-12-20T18:02:08;5.30;99.90
33741;DHT22;20065;48.380;10.892;2023-12-20T18:04:55;4.80;99.90
33741;DHT22;20065;48.380;10.892;2023-12-20T18:07:41;5.20;99.90
33741;DHT22;20065;48.380;10.892;2023-12-20T18:10:32;5.20;99.90
33741;DHT22;20065;48.380;10.892;2023-12-20T18:13:18;5.20;99.90
33741;DHT22;20065;48.380;10.892;2023-12-20T18:16:04;5.30;99.90
33741;DHT22;20065;48.380;10.892;2023-12-20T18:18:57;5.30;99.90
33741;DHT22;20065;48.380;10.892;2023-12-20T18:21:43;5.40;99.90
33741;DHT22;20065;48.380;10.892;2023-12-20T18:24:29;5.30;99.90
33741;DHT22;20065;48.380;10.892;2023-12-20T18:27:15;5.20;99.90
33741;DHT22;20065;48.380;10.892;2023-12-20T18:30:02;5.10;99.90
33741;DHT22;20065;48.380;10.892;2023-12-20T18:50:47;5.80;99.90
33741;DHT22;20065;48.380;10.892;2023-12-20T18:53:40;5.80;99.90
33741;DHT22;20065;48.380;10.892;2023-12-20T18:56:37;5.10;99.90
33741;DHT22;20065;48.380;10.892;2023-12-20T18:59:26;5.70;99.90
33741;DHT22;20065;48.380;10.892;2023-12-20T19:02:15;5.20;99.90
33741;DHT22;20065;48.380;10.892;2023-12-20T19:05:06;5.90;99.90
33741;DHT22;20065;48.380;10.892;2023-12-20T19:07:58;5.30;99.90
33741;DHT22;20065;48.380;10.892;2023-12-20T19:10:45;5.60;99.90
33741;DHT22;20065;48.380;10.892;2023-12-20T19:38:56;5.70;99.90
33741;DHT22;20065;48.380;10.892;2023-12-20T20:22:44;5.10;99.90
33741;DHT22;20065;48.380;10.892;2023-12-20T20:25:34;5.10;99.90
33741;DHT22;20065;48.380;10.892;2023-12-20T20:28:21;5.20;99.90
33741;DHT22;20065;48.380;10.892;2023-12-20T20:31:07;5.10;99.90
33741;DHT22;20065;48.380;10.892;2023-12-20T20:33:56;5.10;99.90
33741;DHT22;20065;48.380;10.892;2023-12-20T20:36:45;5.60;99.90
33741;DHT22;20065;48.380;10.892;2023-12-20T20:39:32;4.20;99.90
33741;DHT22;20065;48.380;10.892;2023-12-20T20:42:19;5.10;99.90
33741;DHT22;20065;48.380;10.892;2023-12-20T20:45:05;5.20;99.90
33741;DHT22;20065;48.380;10.892;2023-12-20T20:47:52;5.10;99.90
33741;DHT22;20065;48.380;10.892;2023-12-20T20:59:08;5.10;99.90
33741;DHT22;20065;48.380;10.892;2023-12-20T21:01:54;5.40;99.90